< < Back
Terminal Aerodrome Forecast


Current Version              Previous Versions:   1  2  3  4  5  6  7  8  9  

Terminal Aerodrome Forecast

920
FTUS42 KJAX 291910 AAA
TAFGNV
TAF AMD
KGNV 291910Z 2919/3018 27010KT P6SM VCSH SCT020 BKN100 BKN250
     FM300000 22005KT P6SM VCSH SCT040 BKN200
     FM300500 VRB03KT P6SM SCT040 BKN250
     FM301300 25007KT P6SM VCSH BKN040 BKN250=



Latest METAR

781
SAUS70 KWBC 300300 RRA
MTRGNV
METAR KGNV 300253Z AUTO 12003KT 2 1/2SM BR CLR 23/23 A3004 RMK AO2
SLP170 60011 T02330228 50002 $


USA.gov is the U.S. government's official web portal to all federal, state and local government web resources and services.